This is the latest recevied weather packets stored in our database for station/object DH7LK-5. If no packets are shown the sender has not sent any weather packets the latest 10 day(s).
| Time | Temp. | Humidity | Pressure | Rain* | Wind** | Luminosity | Snow |
|---|---|---|---|---|---|---|---|
| 1777559491 | 19.44° C | 40% | - | 0.25 mm | - | - | - |
| 1777557690 | 19.44° C | 40% | - | 0.25 mm | - | - | - |
| 1777530215 | 11.11° C | 58% | - | 0 mm | - | - | - |
| 1777511159 | 5° C | 90% | - | 0 mm | - | - | - |
| 1777509544 | 5.56° C | 89% | - | 0 mm | - | - | - |
| 1777506658 | 5.56° C | 85% | - | 0 mm | - | - | - |
| 1777502353 | 6.67° C | 82% | - | 0 mm | - | - | - |
| 1777498631 | 6.67° C | 69% | - | 0 mm | - | - | - |
| 1777484097 | 13.89° C | 40% | - | 0 mm | - | - | - |
| 1777471034 | 13.89° C | 40% | - | 0 mm | - | - | - |
| 1777469216 | 13.89° C | 42% | - | 0 mm | - | - | - |
| 1777467413 | 13.33° C | 44% | - | 0 mm | - | - | - |
| 1777465612 | 13.33° C | 39% | - | 0 mm | - | - | - |
| 1777443699 | 9.44° C | 56% | - | 0 mm | - | - | - |
| 1777420836 | 8.33° C | 62% | - | 0 mm | - | - | - |
| 1777419035 | 8.89° C | 60% | - | 0 mm | - | - | - |
| 1777417134 | 8.89° C | 60% | - | 0 mm | - | - | - |
| 1777415332 | 9.44° C | 58% | - | 0 mm | - | - | - |
| 1777395656 | 14.44° C | 44% | - | 0 mm | - | - | - |
| 1777356930 | 9.44° C | 55% | - | 0 mm | - | - | - |
| 1777351043 | 7.22° C | 64% | - | 0 mm | - | - | - |
| 1777346859 | 6.67° C | 64% | - | 0 mm | - | - | - |
| 1777343195 | 7.78° C | 61% | - | 0 mm | - | - | - |
| 1777339214 | 8.33° C | 59% | - | 0 mm | - | - | - |
| 1777337413 | 8.33° C | 62% | - | 0 mm | - | - | - |
* Rain since midnight (hover to see other rain measurements)
** Current wind speed in m/s (hover to see current wind gust speed)